sensor_id;sensor_type;location;lat;lon;timestamp;temperature;humidity
6106;DHT22;3083;51.508;7.966;2023-05-10T00:00:10;13.80;99.90
6106;DHT22;3083;51.508;7.966;2023-05-10T00:02:37;13.80;99.90
6106;DHT22;3083;51.508;7.966;2023-05-10T00:05:05;13.70;99.90
6106;DHT22;3083;51.508;7.966;2023-05-10T00:07:32;13.70;99.90
6106;DHT22;3083;51.508;7.966;2023-05-10T00:10:01;13.60;99.90
6106;DHT22;3083;51.508;7.966;2023-05-10T00:12:28;13.60;99.90
6106;DHT22;3083;51.508;7.966;2023-05-10T00:14:54;13.50;99.90
6106;DHT22;3083;51.508;7.966;2023-05-10T00:17:21;13.50;99.90
6106;DHT22;3083;51.508;7.966;2023-05-10T00:19:48;13.40;99.90
6106;DHT22;3083;51.508;7.966;2023-05-10T00:22:15;13.40;99.90
6106;DHT22;3083;51.508;7.966;2023-05-10T00:24:42;13.40;99.90
6106;DHT22;3083;51.508;7.966;2023-05-10T00:27:10;13.40;99.90
6106;DHT22;3083;51.508;7.966;2023-05-10T00:29:37;13.40;99.90
6106;DHT22;3083;51.508;7.966;2023-05-10T00:32:04;13.30;99.90
6106;DHT22;3083;51.508;7.966;2023-05-10T00:34:31;13.30;99.90
6106;DHT22;3083;51.508;7.966;2023-05-10T00:36:58;13.30;99.90
6106;DHT22;3083;51.508;7.966;2023-05-10T00:39:25;13.30;99.90
6106;DHT22;3083;51.508;7.966;2023-05-10T00:41:54;13.30;99.90
6106;DHT22;3083;51.508;7.966;2023-05-10T00:44:22;13.30;99.90
6106;DHT22;3083;51.508;7.966;2023-05-10T00:46:49;13.30;99.90
6106;DHT22;3083;51.508;7.966;2023-05-10T00:49:16;13.30;99.90
6106;DHT22;3083;51.508;7.966;2023-05-10T00:51:44;13.30;99.90
6106;DHT22;3083;51.508;7.966;2023-05-10T00:54:12;13.30;99.90
6106;DHT22;3083;51.508;7.966;2023-05-10T00:56:40;13.30;99.90
6106;DHT22;3083;51.508;7.966;2023-05-10T00:59:09;13.20;99.90
6106;DHT22;3083;51.508;7.966;2023-05-10T01:01:37;13.30;99.90
6106;DHT22;3083;51.508;7.966;2023-05-10T01:04:04;13.20;99.90
6106;DHT22;3083;51.508;7.966;2023-05-10T01:06:31;13.20;99.90
6106;DHT22;3083;51.508;7.966;2023-05-10T01:08:58;13.20;99.90
6106;DHT22;3083;51.508;7.966;2023-05-10T01:11:25;13.20;99.90
6106;DHT22;3083;51.508;7.966;2023-05-10T01:13:56;13.20;99.90
6106;DHT22;3083;51.508;7.966;2023-05-10T01:16:24;13.20;99.90
6106;DHT22;3083;51.508;7.966;2023-05-10T01:18:53;13.20;99.90
6106;DHT22;3083;51.508;7.966;2023-05-10T01:21:23;13.20;99.90
6106;DHT22;3083;51.508;7.966;2023-05-10T01:24:12;13.20;99.90
6106;DHT22;3083;51.508;7.966;2023-05-10T01:27:02;13.20;99.90
6106;DHT22;3083;51.508;7.966;2023-05-10T01:29:56;13.20;99.90
6106;DHT22;3083;51.508;7.966;2023-05-10T01:32:31;13.20;99.90
6106;DHT22;3083;51.508;7.966;2023-05-10T01:35:04;13.20;99.90
6106;DHT22;3083;51.508;7.966;2023-05-10T01:37:41;13.20;99.90
6106;DHT22;3083;51.508;7.966;2023-05-10T01:40:14;13.20;99.90
6106;DHT22;3083;51.508;7.966;2023-05-10T01:42:49;13.20;99.90
6106;DHT22;3083;51.508;7.966;2023-05-10T01:45:24;13.20;99.90
6106;DHT22;3083;51.508;7.966;2023-05-10T01:47:58;13.20;99.90
6106;DHT22;3083;51.508;7.966;2023-05-10T01:50:30;13.20;99.90
6106;DHT22;3083;51.508;7.966;2023-05-10T01:52:59;13.20;99.90
6106;DHT22;3083;51.508;7.966;2023-05-10T01:55:29;13.20;99.90
6106;DHT22;3083;51.508;7.966;2023-05-10T01:58:11;13.20;99.90
6106;DHT22;3083;51.508;7.966;2023-05-10T02:00:42;13.20;99.90
6106;DHT22;3083;51.508;7.966;2023-05-10T02:03:12;13.20;99.90
6106;DHT22;3083;51.508;7.966;2023-05-10T02:05:41;13.10;99.90
6106;DHT22;3083;51.508;7.966;2023-05-10T02:08:11;13.10;99.90
6106;DHT22;3083;51.508;7.966;2023-05-10T02:10:40;13.10;99.90
6106;DHT22;3083;51.508;7.966;2023-05-10T02:13:09;13.10;99.90
6106;DHT22;3083;51.508;7.966;2023-05-10T02:15:37;13.10;99.90
6106;DHT22;3083;51.508;7.966;2023-05-10T02:18:05;13.10;99.90
6106;DHT22;3083;51.508;7.966;2023-05-10T02:20:34;13.10;99.90
6106;DHT22;3083;51.508;7.966;2023-05-10T02:23:02;13.10;99.90
6106;DHT22;3083;51.508;7.966;2023-05-10T02:25:30;13.10;99.90
6106;DHT22;3083;51.508;7.966;2023-05-10T02:28:00;13.10;99.90
6106;DHT22;3083;51.508;7.966;2023-05-10T02:30:28;13.10;99.90
6106;DHT22;3083;51.508;7.966;2023-05-10T02:32:57;13.10;99.90
6106;DHT22;3083;51.508;7.966;2023-05-10T02:35:26;13.10;99.90
6106;DHT22;3083;51.508;7.966;2023-05-10T02:37:54;13.10;99.90
6106;DHT22;3083;51.508;7.966;2023-05-10T02:40:23;13.10;99.90
6106;DHT22;3083;51.508;7.966;2023-05-10T02:42:52;13.10;99.90
6106;DHT22;3083;51.508;7.966;2023-05-10T02:45:24;13.10;99.90
6106;DHT22;3083;51.508;7.966;2023-05-10T02:47:53;13.00;99.90
6106;DHT22;3083;51.508;7.966;2023-05-10T02:50:21;13.00;99.90
6106;DHT22;3083;51.508;7.966;2023-05-10T02:52:51;13.00;99.90
6106;DHT22;3083;51.508;7.966;2023-05-10T02:55:22;13.00;99.90
6106;DHT22;3083;51.508;7.966;2023-05-10T02:57:54;13.00;99.90
6106;DHT22;3083;51.508;7.966;2023-05-10T03:00:24;13.00;99.90
6106;DHT22;3083;51.508;7.966;2023-05-10T03:02:51;13.10;99.90
6106;DHT22;3083;51.508;7.966;2023-05-10T03:05:18;13.10;99.90
6106;DHT22;3083;51.508;7.966;2023-05-10T03:07:45;13.00;99.90
6106;DHT22;3083;51.508;7.966;2023-05-10T03:10:13;13.00;99.90
6106;DHT22;3083;51.508;7.966;2023-05-10T03:12:52;13.00;99.90
6106;DHT22;3083;51.508;7.966;2023-05-10T03:15:28;13.00;99.90
6106;DHT22;3083;51.508;7.966;2023-05-10T03:18:03;13.00;99.90
6106;DHT22;3083;51.508;7.966;2023-05-10T03:20:36;13.00;99.90
6106;DHT22;3083;51.508;7.966;2023-05-10T03:23:10;13.00;99.90
6106;DHT22;3083;51.508;7.966;2023-05-10T03:25:39;13.00;99.90
6106;DHT22;3083;51.508;7.966;2023-05-10T03:28:11;13.00;99.90
6106;DHT22;3083;51.508;7.966;2023-05-10T03:30:39;13.00;99.90
6106;DHT22;3083;51.508;7.966;2023-05-10T03:33:07;12.90;99.90
6106;DHT22;3083;51.508;7.966;2023-05-10T03:35:34;12.90;99.90
6106;DHT22;3083;51.508;7.966;2023-05-10T03:38:01;12.80;99.90
6106;DHT22;3083;51.508;7.966;2023-05-10T03:40:28;12.80;99.90
6106;DHT22;3083;51.508;7.966;2023-05-10T03:42:57;12.70;99.90
6106;DHT22;3083;51.508;7.966;2023-05-10T03:45:26;12.60;99.90
6106;DHT22;3083;51.508;7.966;2023-05-10T03:47:53;12.60;99.90
6106;DHT22;3083;51.508;7.966;2023-05-10T03:50:20;12.50;99.90
6106;DHT22;3083;51.508;7.966;2023-05-10T03:52:47;12.50;99.90
6106;DHT22;3083;51.508;7.966;2023-05-10T03:55:15;12.50;99.90
6106;DHT22;3083;51.508;7.966;2023-05-10T03:57:42;12.50;99.90
6106;DHT22;3083;51.508;7.966;2023-05-10T04:00:10;12.50;99.90
6106;DHT22;3083;51.508;7.966;2023-05-10T04:02:39;12.50;99.90
6106;DHT22;3083;51.508;7.966;2023-05-10T04:05:06;12.50;99.90
6106;DHT22;3083;51.508;7.966;2023-05-10T04:07:34;12.50;99.90
6106;DHT22;3083;51.508;7.966;2023-05-10T04:10:02;12.50;99.90
6106;DHT22;3083;51.508;7.966;2023-05-10T04:12:28;12.50;99.90
6106;DHT22;3083;51.508;7.966;2023-05-10T04:14:55;12.50;99.90
6106;DHT22;3083;51.508;7.966;2023-05-10T04:17:22;12.50;99.90
6106;DHT22;3083;51.508;7.966;2023-05-10T04:19:51;12.50;99.90
6106;DHT22;3083;51.508;7.966;2023-05-10T04:22:20;12.50;99.90
6106;DHT22;3083;51.508;7.966;2023-05-10T04:24:47;12.50;99.90
6106;DHT22;3083;51.508;7.966;2023-05-10T04:27:14;12.40;99.90
6106;DHT22;3083;51.508;7.966;2023-05-10T04:29:40;12.40;99.90
6106;DHT22;3083;51.508;7.966;2023-05-10T04:32:08;12.50;99.90
6106;DHT22;3083;51.508;7.966;2023-05-10T04:34:36;12.50;99.90
6106;DHT22;3083;51.508;7.966;2023-05-10T04:37:04;12.60;99.90
6106;DHT22;3083;51.508;7.966;2023-05-10T04:39:33;12.60;99.90
6106;DHT22;3083;51.508;7.966;2023-05-10T04:42:00;12.60;99.90
6106;DHT22;3083;51.508;7.966;2023-05-10T04:44:28;12.70;99.90
6106;DHT22;3083;51.508;7.966;2023-05-10T04:46:55;12.60;99.90
6106;DHT22;3083;51.508;7.966;2023-05-10T04:49:22;12.60;99.90
6106;DHT22;3083;51.508;7.966;2023-05-10T04:51:49;12.70;99.90
6106;DHT22;3083;51.508;7.966;2023-05-10T04:54:17;12.70;99.90
6106;DHT22;3083;51.508;7.966;2023-05-10T04:56:44;12.70;99.90
6106;DHT22;3083;51.508;7.966;2023-05-10T04:59:11;12.80;99.90
6106;DHT22;3083;51.508;7.966;2023-05-10T05:01:38;12.80;99.90
6106;DHT22;3083;51.508;7.966;2023-05-10T05:04:05;12.80;99.90
6106;DHT22;3083;51.508;7.966;2023-05-10T05:06:33;12.90;99.90
6106;DHT22;3083;51.508;7.966;2023-05-10T05:09:00;12.90;99.90
6106;DHT22;3083;51.508;7.966;2023-05-10T05:11:28;12.90;99.90
6106;DHT22;3083;51.508;7.966;2023-05-10T05:13:55;13.00;99.90
6106;DHT22;3083;51.508;7.966;2023-05-10T05:16:24;13.00;99.90
6106;DHT22;3083;51.508;7.966;2023-05-10T05:18:51;13.00;99.90
6106;DHT22;3083;51.508;7.966;2023-05-10T05:21:19;13.00;99.90
6106;DHT22;3083;51.508;7.966;2023-05-10T05:23:46;13.00;99.90
6106;DHT22;3083;51.508;7.966;2023-05-10T05:26:13;13.00;99.90
6106;DHT22;3083;51.508;7.966;2023-05-10T05:28:42;13.00;99.90
6106;DHT22;3083;51.508;7.966;2023-05-10T05:31:08;13.00;99.90
6106;DHT22;3083;51.508;7.966;2023-05-10T05:33:35;13.00;99.90
6106;DHT22;3083;51.508;7.966;2023-05-10T05:36:03;13.10;99.90
6106;DHT22;3083;51.508;7.966;2023-05-10T05:38:30;13.10;99.90
6106;DHT22;3083;51.508;7.966;2023-05-10T05:40:58;13.10;99.90
6106;DHT22;3083;51.508;7.966;2023-05-10T05:43:25;13.20;99.90
6106;DHT22;3083;51.508;7.966;2023-05-10T05:45:53;13.20;99.90
6106;DHT22;3083;51.508;7.966;2023-05-10T05:48:20;13.20;99.90
6106;DHT22;3083;51.508;7.966;2023-05-10T05:50:47;13.20;99.90
6106;DHT22;3083;51.508;7.966;2023-05-10T05:53:14;13.20;99.90
6106;DHT22;3083;51.508;7.966;2023-05-10T05:55:51;13.10;99.90
6106;DHT22;3083;51.508;7.966;2023-05-10T05:58:18;13.10;99.90
6106;DHT22;3083;51.508;7.966;2023-05-10T06:00:44;13.10;99.90
6106;DHT22;3083;51.508;7.966;2023-05-10T06:03:13;13.10;99.90
6106;DHT22;3083;51.508;7.966;2023-05-10T06:05:40;13.10;99.90
6106;DHT22;3083;51.508;7.966;2023-05-10T06:08:07;13.10;99.90
6106;DHT22;3083;51.508;7.966;2023-05-10T06:10:34;13.00;99.90
6106;DHT22;3083;51.508;7.966;2023-05-10T06:13:02;13.00;99.90
6106;DHT22;3083;51.508;7.966;2023-05-10T06:15:29;13.00;99.90
6106;DHT22;3083;51.508;7.966;2023-05-10T06:17:56;12.90;99.90
6106;DHT22;3083;51.508;7.966;2023-05-10T06:20:24;13.00;99.90
6106;DHT22;3083;51.508;7.966;2023-05-10T06:22:51;13.00;99.90
6106;DHT22;3083;51.508;7.966;2023-05-10T06:25:19;13.10;99.90
6106;DHT22;3083;51.508;7.966;2023-05-10T06:27:46;13.10;99.90
6106;DHT22;3083;51.508;7.966;2023-05-10T06:30:15;13.20;99.90
6106;DHT22;3083;51.508;7.966;2023-05-10T06:32:42;13.30;99.90
6106;DHT22;3083;51.508;7.966;2023-05-10T06:35:10;13.30;99.90
6106;DHT22;3083;51.508;7.966;2023-05-10T06:37:39;13.40;99.90
6106;DHT22;3083;51.508;7.966;2023-05-10T06:40:06;13.60;99.90
6106;DHT22;3083;51.508;7.966;2023-05-10T06:42:34;13.70;99.90
6106;DHT22;3083;51.508;7.966;2023-05-10T06:45:01;13.70;99.90
6106;DHT22;3083;51.508;7.966;2023-05-10T06:47:28;13.80;99.90
6106;DHT22;3083;51.508;7.966;2023-05-10T06:49:56;13.80;99.90
6106;DHT22;3083;51.508;7.966;2023-05-10T06:52:22;13.80;99.90
6106;DHT22;3083;51.508;7.966;2023-05-10T06:54:51;13.90;99.90
6106;DHT22;3083;51.508;7.966;2023-05-10T06:57:18;13.90;99.90
6106;DHT22;3083;51.508;7.966;2023-05-10T06:59:45;13.90;99.90
6106;DHT22;3083;51.508;7.966;2023-05-10T07:02:12;13.90;99.90
6106;DHT22;3083;51.508;7.966;2023-05-10T07:04:40;13.90;99.90
6106;DHT22;3083;51.508;7.966;2023-05-10T07:07:07;13.90;99.90
6106;DHT22;3083;51.508;7.966;2023-05-10T07:09:34;14.00;99.90
6106;DHT22;3083;51.508;7.966;2023-05-10T07:12:02;14.00;99.90
6106;DHT22;3083;51.508;7.966;2023-05-10T07:14:29;14.00;99.90
6106;DHT22;3083;51.508;7.966;2023-05-10T07:16:56;14.10;99.90
6106;DHT22;3083;51.508;7.966;2023-05-10T07:19:23;14.30;99.90
6106;DHT22;3083;51.508;7.966;2023-05-10T07:21:50;14.40;99.90
6106;DHT22;3083;51.508;7.966;2023-05-10T07:24:17;14.70;99.90
6106;DHT22;3083;51.508;7.966;2023-05-10T07:26:44;15.10;99.90
6106;DHT22;3083;51.508;7.966;2023-05-10T07:29:12;15.40;99.90
6106;DHT22;3083;51.508;7.966;2023-05-10T07:31:39;15.50;99.90
6106;DHT22;3083;51.508;7.966;2023-05-10T07:34:07;15.50;99.90
6106;DHT22;3083;51.508;7.966;2023-05-10T07:36:34;15.50;99.90
6106;DHT22;3083;51.508;7.966;2023-05-10T07:39:01;15.50;99.90
6106;DHT22;3083;51.508;7.966;2023-05-10T07:41:28;15.50;99.90
6106;DHT22;3083;51.508;7.966;2023-05-10T07:43:55;15.50;99.90
6106;DHT22;3083;51.508;7.966;2023-05-10T07:46:24;15.50;99.90
6106;DHT22;3083;51.508;7.966;2023-05-10T07:48:50;15.60;99.90
6106;DHT22;3083;51.508;7.966;2023-05-10T07:51:17;15.80;99.90
6106;DHT22;3083;51.508;7.966;2023-05-10T07:53:45;16.00;99.90
6106;DHT22;3083;51.508;7.966;2023-05-10T07:56:23;16.20;99.90
6106;DHT22;3083;51.508;7.966;2023-05-10T07:58:52;16.40;99.90
6106;DHT22;3083;51.508;7.966;2023-05-10T08:01:19;16.40;99.90
6106;DHT22;3083;51.508;7.966;2023-05-10T08:03:47;16.40;99.90
6106;DHT22;3083;51.508;7.966;2023-05-10T08:06:14;16.40;99.90
6106;DHT22;3083;51.508;7.966;2023-05-10T08:08:41;16.30;99.90
6106;DHT22;3083;51.508;7.966;2023-05-10T08:11:08;16.30;99.90
6106;DHT22;3083;51.508;7.966;2023-05-10T08:13:35;16.10;99.90
6106;DHT22;3083;51.508;7.966;2023-05-10T08:16:03;16.10;99.90
6106;DHT22;3083;51.508;7.966;2023-05-10T08:18:30;16.10;99.90
6106;DHT22;3083;51.508;7.966;2023-05-10T08:20:58;16.20;99.90
6106;DHT22;3083;51.508;7.966;2023-05-10T08:23:25;16.20;99.90
6106;DHT22;3083;51.508;7.966;2023-05-10T08:25:52;16.40;99.90
6106;DHT22;3083;51.508;7.966;2023-05-10T08:28:19;16.60;99.90
6106;DHT22;3083;51.508;7.966;2023-05-10T08:30:46;17.00;99.90
6106;DHT22;3083;51.508;7.966;2023-05-10T08:33:12;17.50;99.90
6106;DHT22;3083;51.508;7.966;2023-05-10T08:35:39;17.80;99.90
6106;DHT22;3083;51.508;7.966;2023-05-10T08:38:08;17.70;99.90
6106;DHT22;3083;51.508;7.966;2023-05-10T08:40:37;17.60;99.90
6106;DHT22;3083;51.508;7.966;2023-05-10T08:43:05;17.50;99.90
6106;DHT22;3083;51.508;7.966;2023-05-10T08:45:36;17.30;99.90
6106;DHT22;3083;51.508;7.966;2023-05-10T08:48:05;17.20;99.90
6106;DHT22;3083;51.508;7.966;2023-05-10T08:50:36;17.20;99.90
6106;DHT22;3083;51.508;7.966;2023-05-10T08:53:05;17.30;99.90
6106;DHT22;3083;51.508;7.966;2023-05-10T08:55:34;17.80;99.90
6106;DHT22;3083;51.508;7.966;2023-05-10T08:58:02;18.40;99.90
6106;DHT22;3083;51.508;7.966;2023-05-10T09:00:30;18.70;99.90
6106;DHT22;3083;51.508;7.966;2023-05-10T09:02:57;18.80;99.90
6106;DHT22;3083;51.508;7.966;2023-05-10T09:05:24;18.70;99.90
6106;DHT22;3083;51.508;7.966;2023-05-10T09:07:51;18.70;99.90
6106;DHT22;3083;51.508;7.966;2023-05-10T09:10:19;18.70;99.90
6106;DHT22;3083;51.508;7.966;2023-05-10T09:12:48;18.90;99.90
6106;DHT22;3083;51.508;7.966;2023-05-10T09:15:16;19.10;99.90
6106;DHT22;3083;51.508;7.966;2023-05-10T09:17:45;19.40;99.90
6106;DHT22;3083;51.508;7.966;2023-05-10T09:20:12;19.40;99.90
6106;DHT22;3083;51.508;7.966;2023-05-10T09:22:39;19.40;99.90
6106;DHT22;3083;51.508;7.966;2023-05-10T09:25:08;19.30;99.90
6106;DHT22;3083;51.508;7.966;2023-05-10T09:27:37;19.00;99.90
6106;DHT22;3083;51.508;7.966;2023-05-10T09:30:09;18.60;99.90
6106;DHT22;3083;51.508;7.966;2023-05-10T09:32:38;18.20;99.90
6106;DHT22;3083;51.508;7.966;2023-05-10T09:35:10;17.90;99.90
6106;DHT22;3083;51.508;7.966;2023-05-10T09:37:40;17.60;99.90
6106;DHT22;3083;51.508;7.966;2023-05-10T09:40:12;17.40;99.90
6106;DHT22;3083;51.508;7.966;2023-05-10T09:42:41;17.30;99.90
6106;DHT22;3083;51.508;7.966;2023-05-10T09:45:10;17.40;99.90
6106;DHT22;3083;51.508;7.966;2023-05-10T09:47:37;17.80;99.90
6106;DHT22;3083;51.508;7.966;2023-05-10T09:50:05;18.20;99.90
6106;DHT22;3083;51.508;7.966;2023-05-10T09:52:47;18.60;99.90
6106;DHT22;3083;51.508;7.966;2023-05-10T09:55:14;19.10;99.90
6106;DHT22;3083;51.508;7.966;2023-05-10T09:57:41;19.30;99.90
6106;DHT22;3083;51.508;7.966;2023-05-10T10:00:17;19.30;99.90
6106;DHT22;3083;51.508;7.966;2023-05-10T10:02:46;19.10;99.90
6106;DHT22;3083;51.508;7.966;2023-05-10T10:05:13;18.90;99.90
6106;DHT22;3083;51.508;7.966;2023-05-10T10:07:41;18.80;99.90
6106;DHT22;3083;51.508;7.966;2023-05-10T10:10:08;18.60;99.90
6106;DHT22;3083;51.508;7.966;2023-05-10T10:12:38;18.70;99.90
6106;DHT22;3083;51.508;7.966;2023-05-10T10:15:07;19.00;99.90
6106;DHT22;3083;51.508;7.966;2023-05-10T10:17:36;19.50;99.90
6106;DHT22;3083;51.508;7.966;2023-05-10T10:20:05;19.90;99.90
6106;DHT22;3083;51.508;7.966;2023-05-10T10:22:33;20.50;99.90
6106;DHT22;3083;51.508;7.966;2023-05-10T10:25:00;20.90;99.90
6106;DHT22;3083;51.508;7.966;2023-05-10T10:27:34;21.30;99.90
6106;DHT22;3083;51.508;7.966;2023-05-10T10:30:10;21.40;99.90
6106;DHT22;3083;51.508;7.966;2023-05-10T10:32:59;21.40;99.90
6106;DHT22;3083;51.508;7.966;2023-05-10T10:35:29;21.70;99.90
6106;DHT22;3083;51.508;7.966;2023-05-10T10:37:57;21.90;99.90
6106;DHT22;3083;51.508;7.966;2023-05-10T10:40:25;22.10;99.90
6106;DHT22;3083;51.508;7.966;2023-05-10T10:42:53;22.30;99.90
6106;DHT22;3083;51.508;7.966;2023-05-10T10:45:21;22.30;99.90
6106;DHT22;3083;51.508;7.966;2023-05-10T10:47:54;22.40;99.90
6106;DHT22;3083;51.508;7.966;2023-05-10T10:50:44;22.50;99.90
6106;DHT22;3083;51.508;7.966;2023-05-10T10:53:12;22.60;99.90
6106;DHT22;3083;51.508;7.966;2023-05-10T10:55:46;22.70;99.90
6106;DHT22;3083;51.508;7.966;2023-05-10T10:58:29;22.60;99.90
6106;DHT22;3083;51.508;7.966;2023-05-10T11:01:10;22.20;99.90
6106;DHT22;3083;51.508;7.966;2023-05-10T11:03:55;21.90;99.90
6106;DHT22;3083;51.508;7.966;2023-05-10T11:06:35;21.60;99.90
6106;DHT22;3083;51.508;7.966;2023-05-10T11:09:06;21.60;99.90
6106;DHT22;3083;51.508;7.966;2023-05-10T11:11:34;21.80;99.90
6106;DHT22;3083;51.508;7.966;2023-05-10T11:14:03;21.90;99.90
6106;DHT22;3083;51.508;7.966;2023-05-10T11:16:41;22.00;99.90
6106;DHT22;3083;51.508;7.966;2023-05-10T11:19:11;22.10;99.90
6106;DHT22;3083;51.508;7.966;2023-05-10T11:21:46;22.10;99.90
6106;DHT22;3083;51.508;7.966;2023-05-10T11:24:15;22.10;99.90
6106;DHT22;3083;51.508;7.966;2023-05-10T11:26:42;22.10;99.90
6106;DHT22;3083;51.508;7.966;2023-05-10T11:29:09;21.60;99.90
6106;DHT22;3083;51.508;7.966;2023-05-10T11:31:42;21.20;99.90
6106;DHT22;3083;51.508;7.966;2023-05-10T11:34:12;20.80;99.90
6106;DHT22;3083;51.508;7.966;2023-05-10T11:36:42;20.50;99.90
6106;DHT22;3083;51.508;7.966;2023-05-10T11:39:09;20.20;99.90
6106;DHT22;3083;51.508;7.966;2023-05-10T11:41:37;20.00;99.90
6106;DHT22;3083;51.508;7.966;2023-05-10T11:44:04;19.80;99.90
6106;DHT22;3083;51.508;7.966;2023-05-10T11:46:31;19.70;99.90
6106;DHT22;3083;51.508;7.966;2023-05-10T11:48:59;19.70;99.90
6106;DHT22;3083;51.508;7.966;2023-05-10T11:51:33;20.10;99.90
6106;DHT22;3083;51.508;7.966;2023-05-10T11:54:01;20.10;99.90
6106;DHT22;3083;51.508;7.966;2023-05-10T11:56:28;20.10;99.90
6106;DHT22;3083;51.508;7.966;2023-05-10T11:58:56;20.20;99.90
6106;DHT22;3083;51.508;7.966;2023-05-10T12:01:24;20.00;99.90
6106;DHT22;3083;51.508;7.966;2023-05-10T12:03:52;20.00;99.90
6106;DHT22;3083;51.508;7.966;2023-05-10T12:06:20;19.80;99.90
6106;DHT22;3083;51.508;7.966;2023-05-10T12:08:49;19.60;99.90
6106;DHT22;3083;51.508;7.966;2023-05-10T12:11:18;19.60;99.90
6106;DHT22;3083;51.508;7.966;2023-05-10T12:13:46;19.70;99.90
6106;DHT22;3083;51.508;7.966;2023-05-10T12:16:15;19.80;99.90
6106;DHT22;3083;51.508;7.966;2023-05-10T12:18:43;20.00;99.90
6106;DHT22;3083;51.508;7.966;2023-05-10T12:21:10;20.00;99.90
6106;DHT22;3083;51.508;7.966;2023-05-10T12:23:38;19.90;99.90
6106;DHT22;3083;51.508;7.966;2023-05-10T12:26:09;19.70;99.90
6106;DHT22;3083;51.508;7.966;2023-05-10T12:28:37;19.60;99.90
6106;DHT22;3083;51.508;7.966;2023-05-10T12:31:06;19.50;99.90
6106;DHT22;3083;51.508;7.966;2023-05-10T12:33:36;19.50;99.90
6106;DHT22;3083;51.508;7.966;2023-05-10T12:36:05;19.40;99.90
6106;DHT22;3083;51.508;7.966;2023-05-10T12:38:34;19.40;99.90
6106;DHT22;3083;51.508;7.966;2023-05-10T12:41:05;19.40;99.90
6106;DHT22;3083;51.508;7.966;2023-05-10T12:43:34;19.40;99.90
6106;DHT22;3083;51.508;7.966;2023-05-10T12:46:05;19.20;99.90
6106;DHT22;3083;51.508;7.966;2023-05-10T12:48:33;19.00;99.90
6106;DHT22;3083;51.508;7.966;2023-05-10T12:51:00;18.90;99.90
6106;DHT22;3083;51.508;7.966;2023-05-10T12:53:27;18.80;99.90
6106;DHT22;3083;51.508;7.966;2023-05-10T12:55:54;18.60;99.90
6106;DHT22;3083;51.508;7.966;2023-05-10T12:58:21;18.60;99.90
6106;DHT22;3083;51.508;7.966;2023-05-10T13:00:50;18.60;99.90
6106;DHT22;3083;51.508;7.966;2023-05-10T13:03:17;18.70;99.90
6106;DHT22;3083;51.508;7.966;2023-05-10T13:05:44;18.90;99.90
6106;DHT22;3083;51.508;7.966;2023-05-10T13:08:12;19.00;99.90
6106;DHT22;3083;51.508;7.966;2023-05-10T13:10:39;19.10;99.90
6106;DHT22;3083;51.508;7.966;2023-05-10T13:13:06;19.30;99.90
6106;DHT22;3083;51.508;7.966;2023-05-10T13:15:33;19.60;99.90
6106;DHT22;3083;51.508;7.966;2023-05-10T13:18:02;19.90;99.90
6106;DHT22;3083;51.508;7.966;2023-05-10T13:20:29;20.00;99.90
6106;DHT22;3083;51.508;7.966;2023-05-10T13:22:56;20.20;99.90
6106;DHT22;3083;51.508;7.966;2023-05-10T13:25:23;20.30;99.90
6106;DHT22;3083;51.508;7.966;2023-05-10T13:27:49;20.40;99.90
6106;DHT22;3083;51.508;7.966;2023-05-10T13:30:17;20.50;99.90
6106;DHT22;3083;51.508;7.966;2023-05-10T13:32:43;20.50;99.90
6106;DHT22;3083;51.508;7.966;2023-05-10T13:35:12;20.50;99.90
6106;DHT22;3083;51.508;7.966;2023-05-10T13:37:39;20.40;99.90
6106;DHT22;3083;51.508;7.966;2023-05-10T13:40:07;20.30;99.90
6106;DHT22;3083;51.508;7.966;2023-05-10T13:42:34;20.30;99.90
6106;DHT22;3083;51.508;7.966;2023-05-10T13:45:01;20.20;99.90
6106;DHT22;3083;51.508;7.966;2023-05-10T13:47:28;20.10;99.90
6106;DHT22;3083;51.508;7.966;2023-05-10T13:49:55;20.20;99.90
6106;DHT22;3083;51.508;7.966;2023-05-10T13:52:24;20.20;99.90
6106;DHT22;3083;51.508;7.966;2023-05-10T13:54:51;20.10;99.90
6106;DHT22;3083;51.508;7.966;2023-05-10T13:57:20;19.80;99.90
6106;DHT22;3083;51.508;7.966;2023-05-10T13:59:47;19.70;99.90
6106;DHT22;3083;51.508;7.966;2023-05-10T14:02:15;19.70;99.90
6106;DHT22;3083;51.508;7.966;2023-05-10T14:04:42;19.80;99.90
6106;DHT22;3083;51.508;7.966;2023-05-10T14:07:09;19.70;99.90
6106;DHT22;3083;51.508;7.966;2023-05-10T14:09:37;19.60;99.90
6106;DHT22;3083;51.508;7.966;2023-05-10T14:12:04;19.50;99.90
6106;DHT22;3083;51.508;7.966;2023-05-10T14:14:31;19.60;99.90
6106;DHT22;3083;51.508;7.966;2023-05-10T14:16:58;19.60;99.90
6106;DHT22;3083;51.508;7.966;2023-05-10T14:19:25;19.60;99.90
6106;DHT22;3083;51.508;7.966;2023-05-10T14:21:53;19.60;99.90
6106;DHT22;3083;51.508;7.966;2023-05-10T14:24:20;19.60;99.90
6106;DHT22;3083;51.508;7.966;2023-05-10T14:26:48;19.70;99.90
6106;DHT22;3083;51.508;7.966;2023-05-10T14:29:19;19.70;99.90
6106;DHT22;3083;51.508;7.966;2023-05-10T14:31:46;19.90;99.90
6106;DHT22;3083;51.508;7.966;2023-05-10T14:34:12;20.20;99.90
6106;DHT22;3083;51.508;7.966;2023-05-10T14:36:39;20.30;99.90
6106;DHT22;3083;51.508;7.966;2023-05-10T14:39:06;20.40;99.90
6106;DHT22;3083;51.508;7.966;2023-05-10T14:41:35;20.30;99.90
6106;DHT22;3083;51.508;7.966;2023-05-10T14:44:04;20.30;99.90
6106;DHT22;3083;51.508;7.966;2023-05-10T14:46:31;20.10;99.90
6106;DHT22;3083;51.508;7.966;2023-05-10T14:48:59;20.00;99.90
6106;DHT22;3083;51.508;7.966;2023-05-10T14:51:26;19.90;99.90
6106;DHT22;3083;51.508;7.966;2023-05-10T14:53:53;19.80;99.90
6106;DHT22;3083;51.508;7.966;2023-05-10T14:56:20;19.70;99.90
6106;DHT22;3083;51.508;7.966;2023-05-10T14:58:49;19.70;99.90
6106;DHT22;3083;51.508;7.966;2023-05-10T15:01:18;19.70;99.90
6106;DHT22;3083;51.508;7.966;2023-05-10T15:03:44;19.60;99.90
6106;DHT22;3083;51.508;7.966;2023-05-10T15:06:13;19.40;99.90
6106;DHT22;3083;51.508;7.966;2023-05-10T15:08:40;19.40;99.90
6106;DHT22;3083;51.508;7.966;2023-05-10T15:11:07;19.40;99.90
6106;DHT22;3083;51.508;7.966;2023-05-10T15:13:34;19.30;99.90
6106;DHT22;3083;51.508;7.966;2023-05-10T15:16:01;19.20;99.90
6106;DHT22;3083;51.508;7.966;2023-05-10T15:18:29;19.20;99.90
6106;DHT22;3083;51.508;7.966;2023-05-10T15:20:56;19.30;99.90
6106;DHT22;3083;51.508;7.966;2023-05-10T15:23:24;19.20;99.90
6106;DHT22;3083;51.508;7.966;2023-05-10T15:25:51;19.30;99.90
6106;DHT22;3083;51.508;7.966;2023-05-10T15:28:21;19.20;99.90
6106;DHT22;3083;51.508;7.966;2023-05-10T15:30:47;19.20;99.90
6106;DHT22;3083;51.508;7.966;2023-05-10T15:33:14;19.30;99.90
6106;DHT22;3083;51.508;7.966;2023-05-10T15:35:43;19.40;99.90
6106;DHT22;3083;51.508;7.966;2023-05-10T15:38:10;19.40;99.90
6106;DHT22;3083;51.508;7.966;2023-05-10T15:40:37;19.30;99.90
6106;DHT22;3083;51.508;7.966;2023-05-10T15:43:04;19.30;99.90
6106;DHT22;3083;51.508;7.966;2023-05-10T15:45:31;19.40;99.90
6106;DHT22;3083;51.508;7.966;2023-05-10T15:47:58;19.40;99.90
6106;DHT22;3083;51.508;7.966;2023-05-10T15:50:26;19.50;99.90
6106;DHT22;3083;51.508;7.966;2023-05-10T15:52:54;19.50;99.90
6106;DHT22;3083;51.508;7.966;2023-05-10T15:55:21;19.60;99.90
6106;DHT22;3083;51.508;7.966;2023-05-10T15:57:48;19.50;99.90
6106;DHT22;3083;51.508;7.966;2023-05-10T16:00:16;19.50;99.90
6106;DHT22;3083;51.508;7.966;2023-05-10T16:02:44;19.50;99.90
6106;DHT22;3083;51.508;7.966;2023-05-10T16:05:10;19.50;99.90
6106;DHT22;3083;51.508;7.966;2023-05-10T16:07:38;19.50;99.90
6106;DHT22;3083;51.508;7.966;2023-05-10T16:10:09;19.40;99.90